createdAt,value
2023-01-30T00:00:12.475Z,-0.20
2023-01-30T00:03:07.624Z,-0.20
2023-01-30T00:05:56.213Z,-0.20
2023-01-30T00:08:45.023Z,-0.10
2023-01-30T00:11:35.505Z,-0.10
2023-01-30T00:14:39.463Z,-0.10
2023-01-30T00:17:50.055Z,-0.10
2023-01-30T00:20:40.777Z,-0.10
2023-01-30T00:23:41.184Z,-0.10
2023-01-30T00:26:28.945Z,-0.20
2023-01-30T00:29:23.723Z,-0.20
2023-01-30T00:32:23.483Z,-0.10
2023-01-30T00:35:34.505Z,-0.10
2023-01-30T00:49:20.374Z,-0.20
2023-01-30T00:52:35.953Z,-0.20
2023-01-30T00:55:46.696Z,0.00
2023-01-30T00:58:35.129Z,0.00
2023-01-30T01:01:26.194Z,0.10
2023-01-30T01:04:14.643Z,0.20
2023-01-30T01:07:26.831Z,0.20
2023-01-30T01:10:23.988Z,0.10
2023-01-30T01:14:21.445Z,0.10
2023-01-30T01:17:48.070Z,0.10
2023-01-30T01:23:25.465Z,0.10
2023-01-30T01:29:10.084Z,0.20
2023-01-30T01:32:06.090Z,0.30
2023-01-30T01:35:04.901Z,0.30
2023-01-30T01:41:05.247Z,0.30
2023-01-30T01:44:06.918Z,0.30
2023-01-30T01:47:12.754Z,0.40
2023-01-30T01:50:29.348Z,0.30
2023-01-30T01:53:28.165Z,0.30
2023-01-30T01:56:26.222Z,0.30
2023-01-30T01:59:43.414Z,0.30
2023-01-30T02:02:45.784Z,0.30
2023-01-30T02:05:44.568Z,0.40
2023-01-30T02:08:35.030Z,0.40
2023-01-30T02:11:51.268Z,0.40
2023-01-30T02:15:19.195Z,0.40
2023-01-30T02:18:14.955Z,0.40
2023-01-30T02:25:18.536Z,0.50
2023-01-30T02:28:43.061Z,0.50
2023-01-30T02:31:46.295Z,0.50
2023-01-30T02:35:13.712Z,0.50
2023-01-30T02:38:23.377Z,0.50
2023-01-30T02:41:52.556Z,0.50
2023-01-30T02:45:17.473Z,0.50
2023-01-30T02:48:31.012Z,0.50
2023-01-30T02:51:40.173Z,0.60
2023-01-30T02:54:30.715Z,0.60
2023-01-30T02:57:47.880Z,0.60
2023-01-30T03:01:10.836Z,0.60
2023-01-30T03:11:18.078Z,0.60
2023-01-30T03:14:36.523Z,0.60
2023-01-30T03:17:46.503Z,0.70
2023-01-30T03:21:17.082Z,0.60
2023-01-30T03:24:13.500Z,0.60
2023-01-30T03:27:37.145Z,0.70
2023-01-30T03:30:43.085Z,0.70
2023-01-30T03:37:26.081Z,0.70
2023-01-30T03:40:37.350Z,0.70
2023-01-30T03:43:28.308Z,0.70
2023-01-30T03:46:30.076Z,0.70
2023-01-30T03:49:26.642Z,0.60
2023-01-30T03:52:14.221Z,0.70
2023-01-30T03:55:02.446Z,0.70
2023-01-30T03:58:05.375Z,0.70
2023-01-30T04:01:13.711Z,0.70
2023-01-30T04:04:15.953Z,0.70
2023-01-30T04:07:03.592Z,0.80
2023-01-30T04:09:57.755Z,0.80
2023-01-30T04:13:05.049Z,0.80
2023-01-30T04:16:32.311Z,0.80
2023-01-30T04:19:26.013Z,0.80
2023-01-30T04:22:13.853Z,0.80
2023-01-30T04:25:01.814Z,0.80
2023-01-30T04:28:06.203Z,0.80
2023-01-30T04:30:57.737Z,0.80
2023-01-30T04:33:45.860Z,0.70
2023-01-30T04:36:51.713Z,0.70
2023-01-30T04:39:39.895Z,0.70
2023-01-30T04:42:37.138Z,0.70
2023-01-30T04:45:27.922Z,0.70
2023-01-30T04:48:21.253Z,0.70
2023-01-30T04:51:35.229Z,0.70
2023-01-30T04:54:30.334Z,0.70
2023-01-30T05:00:30.807Z,0.80
2023-01-30T05:03:27.908Z,0.80
2023-01-30T05:09:21.472Z,0.90
2023-01-30T05:12:39.351Z,0.90
2023-01-30T05:15:33.042Z,0.90
2023-01-30T05:18:26.279Z,0.90
2023-01-30T05:21:30.477Z,0.90
2023-01-30T05:24:35.632Z,0.90
2023-01-30T05:27:35.136Z,0.90
2023-01-30T05:30:29.393Z,0.90
2023-01-30T05:33:26.683Z,0.90
2023-01-30T05:39:28.345Z,0.90
2023-01-30T05:42:38.284Z,0.80
2023-01-30T05:45:33.604Z,0.80
2023-01-30T05:49:00.110Z,0.80
2023-01-30T05:51:49.933Z,0.80
2023-01-30T05:54:45.556Z,0.80
2023-01-30T05:58:03.751Z,0.80
2023-01-30T06:00:56.212Z,0.80
2023-01-30T06:03:48.826Z,0.80
2023-01-30T06:06:39.952Z,0.80
2023-01-30T06:09:47.943Z,0.90
2023-01-30T06:12:46.180Z,0.90
2023-01-30T06:15:42.029Z,0.90
2023-01-30T06:18:37.995Z,0.90
2023-01-30T06:21:37.587Z,1.00
2023-01-30T06:24:43.390Z,0.90
2023-01-30T06:27:34.625Z,1.00
2023-01-30T06:33:50.568Z,1.00
2023-01-30T06:39:57.027Z,1.00
2023-01-30T06:42:52.003Z,1.10
2023-01-30T06:48:49.536Z,1.10
2023-01-30T06:51:37.407Z,1.10
2023-01-30T06:54:25.068Z,1.20
2023-01-30T06:57:12.860Z,1.20
2023-01-30T07:00:00.819Z,1.10
2023-01-30T07:02:51.416Z,1.10
2023-01-30T07:05:45.202Z,1.20
2023-01-30T07:08:32.879Z,1.20
2023-01-30T07:11:34.315Z,1.30
2023-01-30T07:14:25.061Z,1.20
2023-01-30T07:17:13.189Z,1.30
2023-01-30T07:20:30.274Z,1.30
2023-01-30T07:23:18.228Z,1.30
2023-01-30T07:26:07.071Z,1.30
2023-01-30T07:29:02.629Z,1.30
2023-01-30T07:31:53.708Z,1.30
2023-01-30T07:34:47.660Z,1.30
2023-01-30T07:37:43.281Z,1.30
2023-01-30T07:40:33.784Z,1.30
2023-01-30T07:46:49.901Z,1.40
2023-01-30T07:49:38.722Z,1.30
2023-01-30T07:52:41.471Z,1.30
2023-01-30T07:55:46.810Z,1.40
2023-01-30T07:58:37.927Z,1.30
2023-01-30T08:01:29.893Z,1.30
2023-01-30T08:04:25.837Z,1.40
2023-01-30T08:07:41.231Z,1.40
2023-01-30T08:10:32.229Z,1.30
2023-01-30T08:13:49.201Z,1.30
2023-01-30T08:19:53.184Z,1.40
2023-01-30T08:22:48.102Z,1.50
2023-01-30T08:25:54.253Z,1.50
2023-01-30T08:28:46.806Z,1.40
2023-01-30T08:31:45.086Z,1.40
2023-01-30T08:34:42.160Z,1.40
2023-01-30T08:38:17.930Z,1.40
2023-01-30T08:45:25.686Z,1.40
2023-01-30T08:48:29.875Z,1.40
2023-01-30T08:51:32.577Z,1.40
2023-01-30T09:01:26.558Z,1.50
2023-01-30T09:05:44.059Z,1.50
2023-01-30T09:08:23.309Z,1.50
2023-01-30T09:14:33.406Z,1.60
2023-01-30T09:21:23.857Z,1.60
2023-01-30T09:24:51.472Z,1.70
2023-01-30T09:28:05.897Z,1.70
2023-01-30T09:31:09.893Z,1.70
2023-01-30T09:37:07.354Z,1.80
2023-01-30T09:39:55.621Z,1.80
2023-01-30T09:43:19.424Z,1.80
2023-01-30T09:47:02.331Z,1.90
2023-01-30T09:50:31.275Z,1.90
2023-01-30T09:53:42.883Z,2.00
2023-01-30T09:56:32.703Z,1.90
2023-01-30T09:59:38.868Z,2.00
2023-01-30T10:02:57.480Z,2.00
2023-01-30T10:06:03.432Z,2.10
2023-01-30T10:09:37.016Z,2.20
2023-01-30T10:12:52.384Z,2.30
2023-01-30T10:19:55.445Z,2.50
2023-01-30T10:23:22.852Z,2.50
2023-01-30T10:26:27.244Z,2.60
2023-01-30T10:33:06.629Z,2.70
2023-01-30T10:36:09.067Z,2.80
2023-01-30T10:42:27.615Z,2.80
2023-01-30T10:52:11.681Z,3.10
2023-01-30T10:55:51.990Z,3.20
2023-01-30T10:59:32.246Z,3.30
2023-01-30T11:02:51.893Z,3.30
2023-01-30T11:07:02.394Z,3.30
2023-01-30T11:12:44.865Z,3.50
2023-01-30T11:15:42.887Z,3.50
2023-01-30T11:21:44.858Z,3.80
2023-01-30T11:24:41.418Z,3.90
2023-01-30T11:27:38.851Z,4.00
2023-01-30T11:30:35.615Z,4.10
2023-01-30T11:33:40.641Z,4.30
2023-01-30T11:36:55.699Z,4.50
2023-01-30T11:39:55.459Z,4.60
2023-01-30T11:42:51.658Z,4.60
2023-01-30T11:45:44.440Z,4.70
2023-01-30T11:49:11.089Z,5.00
2023-01-30T11:51:58.145Z,5.00
2023-01-30T11:54:48.177Z,5.20
2023-01-30T11:57:50.872Z,5.40
2023-01-30T12:00:40.152Z,5.60
2023-01-30T12:03:31.722Z,5.70
2023-01-30T12:06:45.886Z,5.60
2023-01-30T12:09:41.147Z,5.50
2023-01-30T12:12:37.639Z,5.50
2023-01-30T12:15:29.047Z,5.50
2023-01-30T12:18:40.322Z,5.50
2023-01-30T12:21:46.315Z,5.60
2023-01-30T12:25:02.077Z,5.70
2023-01-30T12:30:57.582Z,5.90
2023-01-30T12:33:45.649Z,5.90
2023-01-30T12:40:40.609Z,6.00
2023-01-30T12:47:50.578Z,6.00
2023-01-30T13:01:50.458Z,6.20
2023-01-30T13:05:27.128Z,6.40
2023-01-30T13:08:22.950Z,6.50
2023-01-30T13:18:15.756Z,6.40
2023-01-30T13:21:21.423Z,6.20
2023-01-30T13:27:52.356Z,6.30
2023-01-30T13:30:42.133Z,6.40
2023-01-30T13:33:36.462Z,6.50
2023-01-30T13:40:08.407Z,6.60
2023-01-30T13:43:08.145Z,6.50
2023-01-30T13:46:18.025Z,6.40
2023-01-30T13:53:06.996Z,6.60
2023-01-30T14:12:58.508Z,6.50
2023-01-30T14:16:35.172Z,6.90
2023-01-30T14:19:40.893Z,7.40
2023-01-30T14:22:39.940Z,7.20
2023-01-30T14:25:49.068Z,7.30
2023-01-30T14:28:47.527Z,7.10
2023-01-30T14:35:02.583Z,7.00
2023-01-30T14:38:16.986Z,7.40
2023-01-30T14:41:07.677Z,7.40
2023-01-30T14:50:27.180Z,7.20
2023-01-30T14:53:18.093Z,7.20
2023-01-30T14:56:15.152Z,7.20
2023-01-30T15:03:15.861Z,7.10
2023-01-30T15:06:12.474Z,7.10
2023-01-30T15:09:21.649Z,7.10
2023-01-30T15:12:48.580Z,7.30
2023-01-30T15:19:32.525Z,7.40
2023-01-30T15:22:36.471Z,7.40
2023-01-30T15:26:05.209Z,7.10
2023-01-30T15:33:50.024Z,6.90
2023-01-30T15:36:44.909Z,6.80
2023-01-30T15:43:19.163Z,6.80
2023-01-30T15:49:25.949Z,6.50
2023-01-30T16:08:38.799Z,6.20
2023-01-30T16:15:29.804Z,6.30
2023-01-30T16:21:41.434Z,6.20
2023-01-30T16:24:50.803Z,6.10
2023-01-30T16:27:42.985Z,6.00
2023-01-30T16:30:45.918Z,5.90
2023-01-30T17:47:13.375Z,5.60
2023-01-30T17:50:11.494Z,5.70
2023-01-30T17:57:33.937Z,5.60
2023-01-30T18:03:57.698Z,5.70
2023-01-30T18:07:49.016Z,5.60
2023-01-30T18:10:46.105Z,5.60
2023-01-30T18:14:00.407Z,5.50
2023-01-30T18:17:05.555Z,5.40
2023-01-30T18:20:13.086Z,5.40
2023-01-30T18:26:23.850Z,5.40
2023-01-30T18:29:35.483Z,5.30
2023-01-30T18:33:13.615Z,5.30
2023-01-30T18:43:35.684Z,5.50
2023-01-30T18:50:13.841Z,5.40
2023-01-30T18:53:35.784Z,5.40
2023-01-30T18:56:43.334Z,5.40
2023-01-30T19:00:02.764Z,5.30
2023-01-30T19:03:08.875Z,5.30
2023-01-30T19:06:24.012Z,5.30
2023-01-30T19:09:31.062Z,5.30
2023-01-30T19:13:00.416Z,5.10
2023-01-30T19:16:13.378Z,5.10
2023-01-30T19:19:53.741Z,5.20
2023-01-30T19:26:24.828Z,5.40
2023-01-30T19:29:20.822Z,5.30
2023-01-30T19:32:14.518Z,5.20
2023-01-30T19:38:19.929Z,5.10
2023-01-30T19:45:27.877Z,4.90
2023-01-30T19:48:32.845Z,4.80
2023-01-30T19:51:49.775Z,4.80
2023-01-30T19:54:47.459Z,4.80
2023-01-30T19:57:43.176Z,4.90
2023-01-30T20:00:41.574Z,5.00
2023-01-30T20:03:59.113Z,4.90
2023-01-30T20:06:51.362Z,4.90
2023-01-30T20:10:22.716Z,4.80
2023-01-30T20:13:13.377Z,4.80
2023-01-30T20:16:06.511Z,4.80
2023-01-30T20:19:14.753Z,4.80
2023-01-30T20:22:08.183Z,4.90
2023-01-30T20:24:56.011Z,4.90
2023-01-30T20:27:45.480Z,5.00
2023-01-30T20:30:33.183Z,5.10
2023-01-30T20:33:20.677Z,5.10
2023-01-30T20:36:11.099Z,5.10
2023-01-30T20:39:04.351Z,5.00
2023-01-30T20:41:55.266Z,5.00
2023-01-30T20:44:43.051Z,5.00
2023-01-30T20:47:30.813Z,4.90
2023-01-30T20:50:18.993Z,4.90
2023-01-30T20:53:06.648Z,4.90
2023-01-30T20:55:57.574Z,5.00
2023-01-30T20:58:45.533Z,5.00
2023-01-30T21:01:34.199Z,5.00
2023-01-30T21:04:24.288Z,5.10
2023-01-30T21:07:12.174Z,5.10
2023-01-30T21:09:59.874Z,5.20
2023-01-30T21:12:47.559Z,5.10
2023-01-30T21:15:35.344Z,5.20
2023-01-30T21:18:23.017Z,5.20
2023-01-30T21:21:20.720Z,5.20
2023-01-30T21:24:12.721Z,5.20
2023-01-30T21:27:00.610Z,5.10
2023-01-30T21:29:48.250Z,5.20
2023-01-30T21:32:35.956Z,5.10
2023-01-30T21:35:23.630Z,5.20
2023-01-30T21:38:29.993Z,5.10
2023-01-30T21:41:43.563Z,5.10
2023-01-30T21:44:33.597Z,5.00
2023-01-30T21:47:21.191Z,4.80
2023-01-30T21:50:09.381Z,4.80
2023-01-30T21:52:57.383Z,4.80
2023-01-30T21:55:51.520Z,4.60
2023-01-30T21:58:39.092Z,4.60
2023-01-30T22:01:27.882Z,4.50
2023-01-30T22:04:15.992Z,4.50
2023-01-30T22:07:06.447Z,4.50
2023-01-30T22:09:54.541Z,4.50
2023-01-30T22:12:42.173Z,4.60
2023-01-30T22:15:29.922Z,4.50
2023-01-30T22:18:20.208Z,4.50
2023-01-30T22:21:14.193Z,4.40
2023-01-30T22:24:02.794Z,4.40
2023-01-30T22:26:52.187Z,4.40
2023-01-30T22:29:42.273Z,4.50
2023-01-30T22:32:29.767Z,4.60
2023-01-30T22:35:21.211Z,4.60
2023-01-30T22:38:09.065Z,4.60
2023-01-30T22:41:14.568Z,4.60
2023-01-30T22:44:04.235Z,4.60
2023-01-30T22:46:52.407Z,4.50
2023-01-30T22:49:39.934Z,4.50
2023-01-30T22:52:27.609Z,4.50
2023-01-30T22:55:15.225Z,4.50
2023-01-30T22:58:02.862Z,4.50
2023-01-30T23:00:50.422Z,4.50
2023-01-30T23:03:38.547Z,4.40
2023-01-30T23:06:27.313Z,4.40
2023-01-30T23:09:20.585Z,4.40
2023-01-30T23:12:26.701Z,4.40
2023-01-30T23:15:14.308Z,4.30
2023-01-30T23:18:20.201Z,4.30
2023-01-30T23:21:11.689Z,4.30
2023-01-30T23:24:01.458Z,4.20
2023-01-30T23:26:51.087Z,4.30
2023-01-30T23:29:42.722Z,4.20
2023-01-30T23:32:35.639Z,4.10
2023-01-30T23:35:23.481Z,4.00
2023-01-30T23:38:23.066Z,4.00
2023-01-30T23:41:13.779Z,4.10
2023-01-30T23:44:02.132Z,4.00
2023-01-30T23:46:49.892Z,4.00
2023-01-30T23:49:37.832Z,4.00
2023-01-30T23:52:25.496Z,4.00
2023-01-30T23:55:13.072Z,4.00
2023-01-30T23:58:00.818Z,4.00
